Flugplatz Gotha-Ost

Für EDEG sind keine METAR/TAF Berichte vorhanden.
Es werden die Flugwettermeldungen vom Flugplatz Erfurt in 16 km Entfernung angezeigt.

Bericht für EDDE

vom 20.10. um 02:50 UTC

Wind 9 kt aus 220°

Sichtweite 10 km oder mehr

gute Sicht, keine Wolken < 5000 ft, keine CB, keine Wettererscheinungen (CAVOK)

Temperatur 12.0°C

Taupunkt 8.0°C

Luftfeuchtigkeit 76%

Luftdruck 1014 hPa

EDDE 200250Z 22009KT CAVOK 12/08 Q1014

Prognose für EDDE

vom 19.10. um 23:00 UTC

Zwischen 00:00 UTC und 06:00 UTC

Wind 13 kt aus 210°

Sichtweite 10 km oder mehr

keine signifikanten Wettererscheinungen

keine Wolken


Zwischen 06:00 und 09:00 UTC übergehend zu

Wind 15 kt aus 220° in Böen 25 kt

Sichtweite 10 km oder mehr

keine signifikanten Wettererscheinungen

keine Wolken


Zwischen 09:00 UTC und 16:00 UTC zeitweise

Wind 20 kt aus 220° in Böen 30 kt

TAF EDDE 192300Z 2000/2024 21013KT CAVOK BECMG 2006/2009 22015G25KT TEMPO 2009/2016 22020G30KT
Impressum